Time;durP1;ratioP1;P1;durP2;ratioP2;P2;SDS_P1;SDS_P2;PMS_P1;PMS_P2;Temp;Humidity;BMP_temperature;BMP_pressure;BME280_temperature;BME280_humidity;BME280_pressure;Samples;Min_cycle;Max_cycle;Signal;HPM_P1;HPM_P2
2022/01/27 00:03:14;;;;;;;22.13;9.68;;;5.70;99.90;;;;;;4950884;29;20066;-81
2022/01/27 00:05:41;;;;;;;32.50;12.27;;;5.80;99.90;;;;;;4950305;28;20089;-84
2022/01/27 00:13:10;;;;;;;27.80;11.60;;;5.80;99.90;;;;;;4950518;29;20506;-81
2022/01/27 00:15:38;;;;;;;37.75;13.80;;;5.80;99.90;;;;;;4950303;29;20063;-86
2022/01/27 00:18:12;;;;;;;27.70;11.38;;;5.80;99.90;;;;;;4948646;29;20059;-84
2022/01/27 00:20:37;;;;;;;35.53;13.48;;;5.80;99.90;;;;;;4950143;28;20126;-88
2022/01/27 00:23:03;;;;;;;34.30;13.30;;;5.80;99.90;;;;;;4956792;28;20133;-82
2022/01/27 00:25:29;;;;;;;27.30;11.77;;;5.80;99.90;;;;;;5005357;28;20050;-80
2022/01/27 00:27:54;;;;;;;30.38;12.05;;;5.80;99.90;;;;;;5011122;28;20048;-87
2022/01/27 00:30:20;;;;;;;26.50;10.77;;;5.80;99.90;;;;;;5010879;28;20062;-81
2022/01/27 00:32:46;;;;;;;35.05;12.88;;;5.80;99.90;;;;;;5010827;28;20413;-82
2022/01/27 00:35:11;;;;;;;32.35;13.55;;;6.60;99.90;;;;;;5010872;28;20101;-81
2022/01/27 00:37:37;;;;;;;28.02;12.82;;;5.80;99.90;;;;;;5010452;28;20042;-81
2022/01/27 00:40:06;;;;;;;28.20;11.45;;;5.80;99.90;;;;;;5010128;28;20042;-84
2022/01/27 00:42:32;;;;;;;30.13;13.23;;;5.80;99.90;;;;;;5010910;28;20061;-87
2022/01/27 00:44:58;;;;;;;29.60;13.55;;;5.80;99.90;;;;;;5010835;28;20050;-88
2022/01/27 00:47:24;;;;;;;37.58;13.27;;;5.80;99.90;;;;;;4992556;28;20062;-89
2022/01/27 00:49:50;;;;;;;29.05;13.35;;;6.20;99.90;;;;;;5010616;28;20054;-88
2022/01/27 00:52:24;;;;;;;31.10;12.30;;;5.80;99.90;;;;;;5010649;28;20057;-79
2022/01/27 00:54:52;;;;;;;33.97;13.27;;;5.80;99.90;;;;;;5010550;28;20069;-83
2022/01/27 00:57:35;;;;;;;28.42;11.82;;;5.80;99.90;;;;;;5010538;28;20061;-89
2022/01/27 01:00:04;;;;;;;32.40;12.43;;;6.40;99.90;;;;;;5010644;28;20049;-83
2022/01/27 01:02:43;;;;;;;32.95;12.30;;;5.80;99.90;;;;;;4993065;28;20401;-80
2022/01/27 01:07:57;;;;;;;32.65;13.00;;;5.70;99.90;;;;;;5010397;28;20058;-84
2022/01/27 01:15:52;;;;;;;30.73;12.83;;;6.10;99.90;;;;;;5010604;28;20042;-89
2022/01/27 01:36:55;;;;;;;27.52;14.07;;;5.70;99.90;;;;;;5010106;28;20117;-82
2022/01/27 01:39:26;;;;;;;30.30;10.80;;;5.60;99.90;;;;;;5010138;28;20050;-81
2022/01/27 01:41:53;;;;;;;29.95;14.35;;;5.60;99.90;;;;;;5010248;28;20058;-90
2022/01/27 01:44:19;;;;;;;37.10;14.65;;;5.60;99.90;;;;;;5010391;28;20073;-81
2022/01/27 01:46:45;;;;;;;30.42;14.98;;;6.10;99.90;;;;;;5010029;28;20062;-81
2022/01/27 01:49:11;;;;;;;34.53;13.75;;;5.50;99.90;;;;;;5010127;28;20507;-86
2022/01/27 01:51:38;;;;;;;26.58;11.80;;;5.50;99.90;;;;;;5012715;28;20638;-86
2022/01/27 01:54:06;;;;;;;29.77;13.73;;;5.50;99.90;;;;;;5013544;28;20053;-91
2022/01/27 01:56:33;;;;;;;21.63;11.07;;;5.50;99.90;;;;;;5013905;28;20045;-86
2022/01/27 01:58:58;;;;;;;35.75;15.20;;;6.50;99.90;;;;;;5013830;28;20056;-83
2022/01/27 02:01:24;;;;;;;39.00;16.80;;;5.50;99.90;;;;;;4996424;28;20058;-83
2022/01/27 02:03:50;;;;;;;35.45;16.70;;;5.50;99.90;;;;;;4995761;28;20511;-89
2022/01/27 02:06:33;;;;;;;38.20;15.82;;;5.50;99.90;;;;;;4996224;28;20058;-83
2022/01/27 02:09:12;;;;;;;33.47;15.30;;;5.50;99.90;;;;;;5013023;28;20053;-89
2022/01/27 02:19:54;;;;;;;35.15;14.85;;;5.40;99.90;;;;;;5013559;28;20494;-85
2022/01/27 02:22:20;;;;;;;39.78;15.50;;;5.50;99.90;;;;;;5013002;28;20049;-83
2022/01/27 02:24:46;;;;;;;36.10;15.63;;;5.40;99.90;;;;;;5013649;28;20125;-80
2022/01/27 02:27:14;;;;;;;32.78;15.40;;;6.40;99.90;;;;;;5013639;28;20420;-88
2022/01/27 02:29:40;;;;;;;33.53;12.68;;;5.50;99.90;;;;;;5013527;28;20117;-81
2022/01/27 02:32:07;;;;;;;35.83;14.18;;;5.50;99.90;;;;;;5013401;28;20271;-86
2022/01/27 02:34:33;;;;;;;42.53;17.90;;;5.50;99.90;;;;;;5013501;28;20041;-87
2022/01/27 02:36:59;;;;;;;34.85;17.92;;;6.30;99.90;;;;;;5013192;28;20054;-84
2022/01/27 02:39:25;;;;;;;44.05;18.45;;;5.50;99.90;;;;;;4995291;28;20057;-84
2022/01/27 02:42:06;;;;;;;28.85;14.43;;;5.50;99.90;;;;;;5013124;28;20060;-85
2022/01/27 02:45:16;;;;;;;26.90;12.82;;;5.50;99.90;;;;;;5013148;28;20054;-86
2022/01/27 02:47:42;;;;;;;36.88;15.52;;;5.60;99.90;;;;;;4952085;28;20142;-89
2022/01/27 02:50:08;;;;;;;36.47;15.95;;;5.50;99.90;;;;;;4952376;28;20145;-85
2022/01/27 02:52:34;;;;;;;32.50;14.65;;;6.30;99.90;;;;;;4952516;29;20083;-86
2022/01/27 02:55:00;;;;;;;38.30;17.38;;;5.60;99.90;;;;;;4952180;29;20054;-91
2022/01/27 02:57:26;;;;;;;36.85;14.23;;;5.60;99.90;;;;;;4952298;29;20586;-81
2022/01/27 02:59:52;;;;;;;35.50;16.27;;;5.60;99.90;;;;;;4936037;29;20070;-81
2022/01/27 03:02:18;;;;;;;40.10;19.13;;;6.40;99.90;;;;;;4949750;28;20051;-81
2022/01/27 03:04:44;;;;;;;36.85;16.80;;;5.60;99.90;;;;;;4953232;28;20054;-87
2022/01/27 03:07:10;;;;;;;37.35;16.67;;;5.60;99.90;;;;;;4954529;28;20054;-82
2022/01/27 03:09:37;;;;;;;41.03;18.70;;;5.60;99.90;;;;;;4969910;28;20187;-81
2022/01/27 03:12:07;;;;;;;30.20;14.43;;;5.60;99.90;;;;;;4970727;28;20042;-87
2022/01/27 03:14:33;;;;;;;35.05;14.27;;;5.70;99.90;;;;;;4970623;28;20078;-82
2022/01/27 03:17:01;;;;;;;30.35;14.73;;;5.70;99.90;;;;;;4970477;28;20113;-84
2022/01/27 03:19:27;;;;;;;31.80;14.43;;;5.70;99.90;;;;;;4971298;28;20078;-82
2022/01/27 03:21:54;;;;;;;33.28;15.30;;;5.70;99.90;;;;;;4970627;28;20112;-87
2022/01/27 03:24:24;;;;;;;27.38;13.10;;;5.70;99.90;;;;;;5010054;28;20042;-89
2022/01/27 03:26:51;;;;;;;33.47;14.05;;;5.70;99.90;;;;;;5011859;28;20046;-83
2022/01/27 03:29:18;;;;;;;34.90;15.85;;;5.70;99.90;;;;;;5012653;28;20085;-84
2022/01/27 03:31:47;;;;;;;38.85;17.42;;;5.70;99.90;;;;;;5012199;28;20054;-88
2022/01/27 03:34:14;;;;;;;36.70;15.93;;;5.70;99.90;;;;;;4994483;28;20078;-86
2022/01/27 03:36:40;;;;;;;46.30;17.65;;;6.40;99.90;;;;;;4994634;28;20052;-79
2022/01/27 03:39:06;;;;;;;33.60;15.70;;;5.70;99.90;;;;;;5007984;28;20054;-85
2022/01/27 03:41:34;;;;;;;34.58;14.23;;;5.70;99.90;;;;;;5012288;28;20050;-82
2022/01/27 03:44:00;;;;;;;31.10;14.68;;;5.80;99.90;;;;;;5011918;28;20052;-85
2022/01/27 03:46:26;;;;;;;40.85;16.38;;;6.30;99.90;;;;;;5011309;28;20395;-85
2022/01/27 03:48:51;;;;;;;34.22;16.13;;;5.80;99.90;;;;;;5011756;28;20108;-88
2022/01/27 03:51:17;;;;;;;32.15;13.15;;;5.70;99.90;;;;;;5011712;28;20091;-90
2022/01/27 03:53:43;;;;;;;29.10;14.13;;;6.30;99.90;;;;;;4994508;28;20409;-84
2022/01/27 03:56:08;;;;;;;31.77;14.07;;;5.80;99.90;;;;;;4993645;28;20508;-85
2022/01/27 03:58:35;;;;;;;33.47;14.10;;;5.80;99.90;;;;;;5011710;28;20070;-89
2022/01/27 04:01:02;;;;;;;35.00;14.15;;;5.80;99.90;;;;;;5011522;28;20042;-89
2022/01/27 04:03:30;;;;;;;41.38;17.42;;;5.80;99.90;;;;;;5011784;28;20037;-83
2022/01/27 04:06:03;;;;;;;39.78;15.85;;;5.80;99.90;;;;;;5012030;28;20116;-81
2022/01/27 04:08:29;;;;;;;33.10;13.60;;;5.80;99.90;;;;;;5011605;28;20053;-86
2022/01/27 04:10:54;;;;;;;29.52;13.75;;;5.80;99.90;;;;;;5011132;28;20381;-82
2022/01/27 04:13:20;;;;;;;38.00;14.60;;;6.70;99.90;;;;;;5011360;28;20049;-81
2022/01/27 04:15:46;;;;;;;41.28;13.63;;;5.80;99.90;;;;;;5011569;28;20484;-88
2022/01/27 04:18:12;;;;;;;29.00;12.55;;;6.00;99.90;;;;;;4994305;28;20442;-87
2022/01/27 04:20:39;;;;;;;37.90;15.70;;;5.80;99.90;;;;;;4994142;28;20045;-85
2022/01/27 04:23:05;;;;;;;32.22;12.98;;;5.90;99.90;;;;;;4993017;28;20054;-87
2022/01/27 04:25:32;;;;;;;31.98;12.15;;;5.90;99.90;;;;;;5010642;28;20048;-90
2022/01/27 04:28:02;;;;;;;34.65;14.18;;;5.90;99.90;;;;;;5011134;28;20557;-85
2022/01/27 04:30:28;;;;;;;38.97;12.57;;;5.90;99.90;;;;;;5011246;28;20041;-79
2022/01/27 04:32:59;;;;;;;27.60;12.45;;;5.90;99.90;;;;;;5011420;28;20141;-89
2022/01/27 04:35:28;;;;;;;42.38;14.45;;;5.90;99.90;;;;;;5011514;28;20058;-81
2022/01/27 04:43:25;;;;;;;32.03;13.15;;;6.00;99.90;;;;;;4992461;28;20057;-81
2022/01/27 04:48:19;;;;;;;32.63;13.23;;;6.00;99.90;;;;;;5010760;28;20300;-82
2022/01/27 04:50:45;;;;;;;37.70;12.70;;;6.30;99.90;;;;;;5011027;28;20825;-82
2022/01/27 04:53:19;;;;;;;30.80;13.90;;;7.10;99.90;;;;;;5011086;28;20038;-89
2022/01/27 04:55:44;;;;;;;32.15;13.85;;;6.00;99.90;;;;;;4992661;28;20071;-80
2022/01/27 04:58:23;;;;;;;39.88;15.85;;;6.00;99.90;;;;;;5011324;28;20045;-92
2022/01/27 05:00:49;;;;;;;35.30;13.38;;;6.00;99.90;;;;;;5010778;28;20045;-83
2022/01/27 05:03:21;;;;;;;32.47;12.68;;;6.00;99.90;;;;;;4993298;28;20053;-82
2022/01/27 05:05:47;;;;;;;41.72;15.55;;;6.00;99.90;;;;;;5011110;28;20053;-84
2022/01/27 05:08:18;;;;;;;28.45;11.75;;;6.00;99.90;;;;;;5010366;28;20042;-82
2022/01/27 05:10:54;;;;;;;35.88;15.52;;;6.00;99.90;;;;;;5010332;28;20054;-84
2022/01/27 05:13:21;;;;;;;35.00;13.40;;;6.00;99.90;;;;;;5010751;28;20085;-83
2022/01/27 05:15:47;;;;;;;38.38;13.02;;;6.00;99.90;;;;;;5010777;28;20041;-82
2022/01/27 05:18:15;;;;;;;27.58;10.52;;;6.00;99.90;;;;;;5010884;28;20042;-85
2022/01/27 05:20:41;;;;;;;28.00;11.18;;;6.00;99.90;;;;;;5010622;28;20042;-82
2022/01/27 05:23:07;;;;;;;34.67;12.00;;;6.20;99.90;;;;;;5010006;28;20042;-87
2022/01/27 05:25:33;;;;;;;37.75;14.27;;;6.10;99.90;;;;;;5009699;28;20046;-83
2022/01/27 05:27:59;;;;;;;34.55;13.35;;;6.00;99.90;;;;;;4993010;28;20084;-85
2022/01/27 05:30:25;;;;;;;39.53;14.00;;;6.30;99.90;;;;;;5010993;28;20073;-89
2022/01/27 05:32:51;;;;;;;39.53;15.15;;;6.00;99.90;;;;;;5011000;28;20053;-89
2022/01/27 05:35:17;;;;;;;33.55;13.23;;;6.00;99.90;;;;;;4993226;28;20104;-86
2022/01/27 05:37:42;;;;;;;30.65;13.40;;;6.00;99.90;;;;;;5010815;28;20428;-79
2022/01/27 05:40:09;;;;;;;27.33;11.27;;;6.00;99.90;;;;;;4991904;28;20053;-84
2022/01/27 05:42:34;;;;;;;39.28;14.82;;;6.00;99.90;;;;;;4993295;28;20072;-83
2022/01/27 05:45:00;;;;;;;35.33;11.48;;;6.00;99.90;;;;;;4993304;28;20073;-84
2022/01/27 05:47:26;;;;;;;45.40;14.48;;;6.00;99.90;;;;;;4992641;28;20046;-86
2022/01/27 05:49:51;;;;;;;38.00;15.27;;;6.00;99.90;;;;;;5010077;28;20053;-87
2022/01/27 05:52:17;;;;;;;32.10;12.90;;;6.00;99.90;;;;;;4976171;28;20094;-80
2022/01/27 05:54:43;;;;;;;37.03;14.57;;;5.90;99.90;;;;;;4992267;28;20065;-80
2022/01/27 05:57:09;;;;;;;37.85;12.73;;;5.90;99.90;;;;;;4992156;28;20061;-85
2022/01/27 05:59:34;;;;;;;40.35;15.52;;;5.90;99.90;;;;;;5010107;28;20069;-80
2022/01/27 06:02:00;;;;;;;42.45;14.48;;;5.90;99.90;;;;;;5009783;28;20133;-84
2022/01/27 06:04:26;;;;;;;39.55;13.18;;;6.50;99.90;;;;;;5010106;28;20123;-84
2022/01/27 06:06:53;;;;;;;31.60;12.32;;;6.00;99.90;;;;;;5009626;28;20045;-82
2022/01/27 06:09:19;;;;;;;46.47;15.52;;;6.00;99.90;;;;;;5008836;28;20050;-80
2022/01/27 06:11:45;;;;;;;39.03;13.30;;;7.00;99.90;;;;;;5009674;28;20188;-86
2022/01/27 06:14:10;;;;;;;35.45;12.43;;;6.00;99.90;;;;;;5009827;28;20046;-81
2022/01/27 06:16:36;;;;;;;33.42;13.38;;;6.90;99.90;;;;;;5009959;28;20054;-85
2022/01/27 06:19:04;;;;;;;37.67;12.95;;;6.00;99.90;;;;;;5009488;28;20056;-86
2022/01/27 06:21:30;;;;;;;37.38;12.07;;;6.70;99.90;;;;;;4992199;28;20485;-82
2022/01/27 06:23:56;;;;;;;36.25;13.32;;;7.20;99.90;;;;;;5009717;28;20054;-82
2022/01/27 06:26:22;;;;;;;42.63;13.98;;;6.80;99.90;;;;;;5009873;28;20385;-81
2022/01/27 06:28:48;;;;;;;33.72;12.32;;;6.10;99.90;;;;;;4991793;28;20061;-83
2022/01/27 06:31:14;;;;;;;31.40;11.13;;;7.10;99.90;;;;;;5009862;28;20046;-84
2022/01/27 06:33:40;;;;;;;26.67;10.10;;;6.20;99.90;;;;;;5009300;28;20046;-87
2022/01/27 06:36:05;;;;;;;45.63;14.05;;;7.10;99.90;;;;;;5009530;28;20045;-80
2022/01/27 06:38:31;;;;;;;31.50;11.48;;;6.20;99.90;;;;;;5011395;28;20042;-80
2022/01/27 06:40:57;;;;;;;29.85;10.80;;;6.20;99.90;;;;;;4978687;28;20508;-82
2022/01/27 06:43:22;;;;;;;26.25;10.90;;;7.00;99.90;;;;;;4994801;28;20050;-82
2022/01/27 06:45:48;;;;;;;27.00;10.10;;;6.30;99.90;;;;;;5012945;28;20044;-84
2022/01/27 06:48:14;;;;;;;34.63;10.82;;;6.30;99.90;;;;;;5012650;28;20144;-82
2022/01/27 06:50:39;;;;;;;27.25;10.60;;;6.30;99.90;;;;;;5012575;28;20418;-84
2022/01/27 06:53:06;;;;;;;30.13;9.85;;;7.20;99.90;;;;;;5012751;28;20400;-79
2022/01/27 06:55:31;;;;;;;26.02;9.93;;;6.80;99.90;;;;;;4995141;28;20439;-86
2022/01/27 06:57:57;;;;;;;32.35;11.60;;;6.30;99.90;;;;;;5012596;28;20054;-82
2022/01/27 07:00:23;;;;;;;27.95;9.80;;;6.30;99.90;;;;;;5012702;28;20411;-85
2022/01/27 07:02:48;;;;;;;26.60;9.85;;;6.30;99.90;;;;;;4994648;28;20080;-83
2022/01/27 07:05:16;;;;;;;28.02;10.95;;;6.30;99.90;;;;;;4995191;28;20084;-84
2022/01/27 07:07:42;;;;;;;29.95;11.77;;;6.30;99.90;;;;;;5012203;28;20476;-83
2022/01/27 07:10:08;;;;;;;39.70;11.27;;;6.40;99.90;;;;;;5011869;28;20393;-81
2022/01/27 07:12:34;;;;;;;23.63;10.15;;;6.40;99.90;;;;;;5012142;28;20054;-84
2022/01/27 07:15:00;;;;;;;27.58;10.75;;;6.70;99.90;;;;;;5012227;28;20056;-83
2022/01/27 07:17:26;;;;;;;23.20;9.57;;;6.30;99.90;;;;;;5011918;28;20042;-86
2022/01/27 07:19:51;;;;;;;26.20;10.07;;;6.80;99.90;;;;;;4994577;28;20485;-85
2022/01/27 07:22:17;;;;;;;19.98;7.97;;;6.80;99.90;;;;;;4994826;28;20469;-80
2022/01/27 07:24:43;;;;;;;22.98;7.95;;;6.40;99.90;;;;;;5012446;28;20042;-81
2022/01/27 07:27:08;;;;;;;23.02;9.40;;;7.30;99.90;;;;;;5012038;28;20575;-86
2022/01/27 07:29:35;;;;;;;27.55;9.18;;;6.40;99.90;;;;;;5011494;28;20038;-87
2022/01/27 07:32:01;;;;;;;26.05;10.75;;;6.50;99.90;;;;;;5012115;28;20393;-84
2022/01/27 07:34:26;;;;;;;23.58;9.32;;;6.50;99.90;;;;;;5012190;28;20060;-85
2022/01/27 07:36:56;;;;;;;30.65;11.57;;;7.50;99.90;;;;;;5011722;28;20381;-84
2022/01/27 07:39:22;;;;;;;26.77;10.23;;;6.50;99.90;;;;;;5011330;28;20046;-84
2022/01/27 07:41:48;;;;;;;35.10;10.48;;;6.50;99.90;;;;;;5011566;28;20539;-82
2022/01/27 07:44:13;;;;;;;29.73;12.02;;;6.50;99.90;;;;;;4993963;28;20461;-84
2022/01/27 07:46:39;;;;;;;36.75;12.15;;;7.60;99.90;;;;;;5011550;28;20148;-83
2022/01/27 07:49:05;;;;;;;38.97;9.63;;;6.50;99.90;;;;;;5011160;28;20413;-84
2022/01/27 07:51:31;;;;;;;38.67;11.98;;;6.60;99.90;;;;;;4993630;28;20050;-83
2022/01/27 07:53:57;;;;;;;37.13;12.00;;;6.60;99.90;;;;;;5011169;28;20050;-84
2022/01/27 07:56:22;;;;;;;37.47;11.52;;;7.20;99.90;;;;;;5011481;28;20057;-87
2022/01/27 07:58:48;;;;;;;42.15;11.98;;;6.60;99.90;;;;;;4994173;28;20385;-85
2022/01/27 08:01:14;;;;;;;37.92;11.70;;;7.80;99.90;;;;;;5011035;28;20519;-83
2022/01/27 08:03:40;;;;;;;37.50;11.48;;;6.70;99.90;;;;;;4994044;28;20056;-83
2022/01/27 08:06:06;;;;;;;44.78;11.20;;;6.70;99.90;;;;;;5011433;28;20505;-85
2022/01/27 08:08:32;;;;;;;32.42;9.30;;;7.40;99.90;;;;;;5011440;28;20037;-85
2022/01/27 08:10:59;;;;;;;43.33;10.57;;;7.40;99.90;;;;;;5010786;28;20500;-84
2022/01/27 08:13:25;;;;;;;35.83;10.13;;;6.90;99.90;;;;;;5010910;28;20053;-83
2022/01/27 08:15:51;;;;;;;37.70;10.95;;;6.90;99.90;;;;;;5010820;28;20173;-85
2022/01/27 08:18:17;;;;;;;44.55;10.57;;;6.90;99.90;;;;;;5011217;28;20129;-84
2022/01/27 08:20:44;;;;;;;25.10;8.55;;;7.70;99.90;;;;;;5011192;28;20080;-86
2022/01/27 08:23:13;;;;;;;29.48;9.57;;;7.60;99.90;;;;;;4993330;28;20165;-83
2022/01/27 08:25:38;;;;;;;32.08;9.20;;;7.60;99.90;;;;;;4993440;28;20515;-85
2022/01/27 08:28:07;;;;;;;36.78;9.82;;;7.10;99.90;;;;;;5010128;28;20128;-82
2022/01/27 08:30:41;;;;;;;43.85;9.57;;;7.10;99.90;;;;;;5010915;28;20057;-82
2022/01/27 08:33:14;;;;;;;29.70;8.70;;;7.80;99.90;;;;;;4992956;28;20050;-82
2022/01/27 08:35:39;;;;;;;29.85;8.20;;;7.10;99.90;;;;;;5010790;28;20558;-82
2022/01/27 08:38:05;;;;;;;33.92;8.52;;;7.20;99.90;;;;;;5010684;28;20049;-84
2022/01/27 08:40:31;;;;;;;27.90;5.90;;;7.30;99.90;;;;;;4992980;28;20188;-84
2022/01/27 08:42:57;;;;;;;29.95;8.15;;;7.30;99.90;;;;;;4993299;28;20567;-83
2022/01/27 08:45:24;;;;;;;26.17;7.32;;;7.30;99.90;;;;;;4993208;28;20154;-85
2022/01/27 08:47:51;;;;;;;33.20;8.43;;;7.30;99.90;;;;;;5010710;28;20077;-84
2022/01/27 08:50:20;;;;;;;35.03;7.80;;;8.10;99.90;;;;;;5010264;28;20105;-84
2022/01/27 08:52:46;;;;;;;28.40;6.55;;;8.30;99.90;;;;;;5010638;28;20054;-81
2022/01/27 08:55:12;;;;;;;28.00;6.65;;;8.00;99.90;;;;;;5010378;28;20396;-83
2022/01/27 08:57:38;;;;;;;25.55;6.80;;;7.30;99.90;;;;;;5010471;28;20136;-88
2022/01/27 09:00:09;;;;;;;27.73;6.88;;;8.30;99.90;;;;;;5009855;28;20168;-85
2022/01/27 09:02:34;;;;;;;26.35;6.35;;;7.40;99.90;;;;;;5010691;28;20401;-82
2022/01/27 09:05:00;;;;;;;32.05;7.93;;;8.00;99.90;;;;;;4992972;28;20056;-81
2022/01/27 09:07:26;;;;;;;33.45;7.25;;;7.40;99.90;;;;;;5010093;28;20040;-82
2022/01/27 09:09:52;;;;;;;32.55;6.78;;;7.40;99.90;;;;;;5010245;28;20498;-84
2022/01/27 09:12:17;;;;;;;26.10;7.18;;;7.40;99.90;;;;;;5010745;28;20135;-82
2022/01/27 09:14:43;;;;;;;25.55;6.00;;;7.40;99.90;;;;;;5010390;28;20081;-87
2022/01/27 09:17:11;;;;;;;26.75;6.80;;;7.50;99.90;;;;;;5010434;28;20121;-83
2022/01/27 09:19:42;;;;;;;23.88;5.38;;;7.50;99.90;;;;;;5010634;28;20054;-83
2022/01/27 09:22:14;;;;;;;26.95;6.88;;;7.60;99.90;;;;;;5009826;28;20045;-84
2022/01/27 09:25:05;;;;;;;21.48;5.70;;;8.00;99.90;;;;;;5009847;28;20054;-82
2022/01/27 09:27:30;;;;;;;19.05;4.95;;;7.60;99.90;;;;;;5010116;28;20053;-84
2022/01/27 09:29:56;;;;;;;15.07;4.35;;;7.70;99.90;;;;;;5010264;28;20038;-84
2022/01/27 09:32:24;;;;;;;28.10;5.57;;;8.30;99.90;;;;;;4992123;28;20046;-82
2022/01/27 09:34:50;;;;;;;25.35;5.30;;;8.40;99.90;;;;;;5010111;28;20046;-84
2022/01/27 09:37:16;;;;;;;28.08;6.40;;;7.80;99.90;;;;;;5009122;28;20045;-83
2022/01/27 09:39:43;;;;;;;23.85;5.40;;;7.80;99.90;;;;;;5010284;28;20052;-85
2022/01/27 09:42:09;;;;;;;20.88;5.30;;;8.50;99.90;;;;;;5009885;28;20081;-85
2022/01/27 09:44:37;;;;;;;24.95;4.45;;;8.50;99.90;;;;;;4992447;28;20054;-86
2022/01/27 09:47:13;;;;;;;22.85;5.13;;;7.90;99.90;;;;;;5009731;28;20121;-84
2022/01/27 09:50:07;;;;;;;25.70;4.80;;;8.30;99.90;;;;;;5009908;28;20054;-80
2022/01/27 09:52:27;;;;;;;21.55;5.13;;;8.00;99.90;;;;;;5007794;28;20124;-82
2022/01/27 09:54:53;;;;;;;22.95;5.72;;;8.00;99.90;;;;;;4992063;28;20049;-84
2022/01/27 09:57:18;;;;;;;19.08;4.03;;;9.00;99.90;;;;;;4992299;28;20476;-84
2022/01/27 09:59:45;;;;;;;24.98;4.93;;;8.00;99.90;;;;;;4992404;28;20038;-84
2022/01/27 10:02:17;;;;;;;26.17;5.63;;;8.00;99.90;;;;;;5009628;28;20512;-82
2022/01/27 10:04:52;;;;;;;31.52;5.45;;;8.30;99.90;;;;;;4992254;28;20157;-82
2022/01/27 10:07:23;;;;;;;27.88;5.72;;;8.00;99.90;;;;;;4992432;28;20061;-84
2022/01/27 10:10:04;;;;;;;22.17;5.07;;;8.00;99.90;;;;;;4992107;28;20121;-84
2022/01/27 10:12:36;;;;;;;28.25;5.13;;;8.00;99.90;;;;;;5012146;28;20057;-86
2022/01/27 10:15:06;;;;;;;28.75;5.45;;;8.00;99.90;;;;;;5013343;28;20133;-85
2022/01/27 10:17:36;;;;;;;28.13;6.07;;;8.60;99.90;;;;;;4995874;28;20093;-84
2022/01/27 10:20:03;;;;;;;18.52;5.88;;;8.00;99.90;;;;;;5013847;28;20050;-83
2022/01/27 10:22:28;;;;;;;23.17;4.88;;;8.00;99.90;;;;;;5013583;28;20045;-85
2022/01/27 10:25:09;;;;;;;22.50;4.60;;;8.60;99.90;;;;;;5012938;28;20073;-85
2022/01/27 10:33:02;;;;;;;30.13;6.15;;;8.10;99.90;;;;;;5013114;28;20085;-86
2022/01/27 10:35:29;;;;;;;24.15;4.38;;;8.10;99.90;;;;;;4996016;28;20370;-83
2022/01/27 10:37:57;;;;;;;20.05;4.53;;;8.10;99.90;;;;;;5013313;28;20053;-86
2022/01/27 10:40:30;;;;;;;19.73;4.15;;;8.20;99.90;;;;;;5012496;28;20373;-81
2022/01/27 10:43:20;;;;;;;25.38;4.68;;;8.20;99.90;;;;;;5013308;28;20400;-84
2022/01/27 10:46:08;;;;;;;26.52;4.13;;;8.30;99.90;;;;;;5013469;28;20084;-83
2022/01/27 10:48:39;;;;;;;25.13;5.32;;;9.30;99.90;;;;;;5012626;28;20116;-83
2022/01/27 10:51:12;;;;;;;20.52;5.00;;;8.40;99.90;;;;;;4995295;28;20456;-86
2022/01/27 10:53:52;;;;;;;21.33;4.22;;;8.40;99.90;;;;;;4994995;28;20128;-87
2022/01/27 10:56:21;;;;;;;27.92;5.28;;;9.30;99.90;;;;;;5012173;28;20058;-88
2022/01/27 10:58:47;;;;;;;20.55;4.68;;;8.50;99.90;;;;;;4994636;28;20061;-85
2022/01/27 11:01:21;;;;;;;23.75;4.68;;;8.50;99.90;;;;;;5012430;28;20416;-83
2022/01/27 11:03:52;;;;;;;20.67;4.93;;;9.20;99.90;;;;;;4992945;28;20057;-79
2022/01/27 11:06:26;;;;;;;19.83;4.22;;;8.50;99.90;;;;;;4992964;28;20233;-84
2022/01/27 11:08:54;;;;;;;24.67;5.20;;;8.50;99.90;;;;;;4975307;28;20054;-87
2022/01/27 11:11:25;;;;;;;18.75;4.15;;;8.50;99.90;;;;;;4992827;28;20073;-82
2022/01/27 11:13:53;;;;;;;25.27;4.25;;;8.50;99.90;;;;;;4978362;28;20111;-83
2022/01/27 11:16:28;;;;;;;28.38;4.25;;;8.50;99.90;;;;;;5012416;28;20057;-83
2022/01/27 11:19:01;;;;;;;26.58;3.70;;;9.30;99.90;;;;;;5011513;28;20583;-84
2022/01/27 11:21:36;;;;;;;21.70;4.65;;;8.60;99.90;;;;;;5013197;28;20096;-84
2022/01/27 11:24:06;;;;;;;31.80;5.78;;;9.40;99.90;;;;;;5012107;28;20404;-82
2022/01/27 11:26:37;;;;;;;26.83;3.92;;;8.60;99.90;;;;;;5012489;28;20563;-84
2022/01/27 11:29:04;;;;;;;21.38;4.30;;;9.30;99.90;;;;;;5012756;28;20495;-86
2022/01/27 11:31:37;;;;;;;36.40;5.30;;;9.30;99.90;;;;;;5011668;28;20034;-87
2022/01/27 11:34:07;;;;;;;32.88;4.93;;;9.30;99.90;;;;;;5011261;28;20145;-85
2022/01/27 11:36:34;;;;;;;28.95;5.00;;;9.60;99.90;;;;;;5011920;28;20117;-84
2022/01/27 11:39:01;;;;;;;22.67;3.78;;;9.30;99.90;;;;;;5011304;28;20041;-85
2022/01/27 11:41:44;;;;;;;25.25;4.03;;;9.30;99.90;;;;;;5011869;28;20054;-82
2022/01/27 11:44:36;;;;;;;29.58;4.35;;;8.60;99.90;;;;;;4993346;28;20053;-83
2022/01/27 11:47:08;;;;;;;19.77;3.95;;;8.60;99.90;;;;;;5011800;28;20050;-87
2022/01/27 11:49:53;;;;;;;31.30;5.18;;;9.40;99.90;;;;;;5011064;28;20062;-83
2022/01/27 11:52:22;;;;;;;;;;;9.40;99.90;;;;;;5012344;28;20057;-84
2022/01/27 11:54:48;;;;;;;25.77;4.28;;;8.70;99.90;;;;;;5011500;28;19929;-83
2022/01/27 11:57:41;;;;;;;19.25;3.45;;;8.70;99.90;;;;;;5011599;28;20084;-82
2022/01/27 12:00:10;;;;;;;26.17;4.93;;;8.70;99.90;;;;;;5011283;28;20054;-86
2022/01/27 12:03:02;;;;;;;24.45;3.65;;;8.70;99.90;;;;;;5011467;28;20100;-82
2022/01/27 12:05:36;;;;;;;26.83;5.07;;;9.50;99.90;;;;;;5010826;28;20056;-81
2022/01/27 12:08:17;;;;;;;21.92;3.50;;;8.70;99.90;;;;;;4993516;28;20048;-85
2022/01/27 12:10:48;;;;;;;26.13;4.50;;;9.00;99.90;;;;;;4997540;28;20479;-84
2022/01/27 12:13:27;;;;;;;25.85;3.67;;;8.90;99.90;;;;;;5011240;28;20054;-81
2022/01/27 12:19:06;;;;;;;25.83;3.05;;;8.70;99.90;;;;;;5010957;28;20074;-83
2022/01/27 12:21:59;;;;;;;20.10;3.60;;;8.70;99.90;;;;;;5011120;28;20045;-83
2022/01/27 12:24:29;;;;;;;28.15;3.35;;;8.70;99.90;;;;;;4930482;29;20589;-82
2022/01/27 12:27:02;;;;;;;30.75;3.70;;;8.70;99.90;;;;;;4930807;29;20415;-85
2022/01/27 12:29:35;;;;;;;25.55;3.33;;;8.80;99.90;;;;;;4929940;29;20060;-82
2022/01/27 12:32:06;;;;;;;15.40;3.20;;;8.70;99.90;;;;;;4931382;29;20051;-84
2022/01/27 12:34:34;;;;;;;22.15;3.50;;;8.70;99.90;;;;;;4930753;29;20059;-84
2022/01/27 12:37:04;;;;;;;30.80;4.45;;;9.30;99.90;;;;;;4930899;29;20055;-81
2022/01/27 12:39:36;;;;;;;28.23;3.85;;;8.70;99.90;;;;;;4930521;29;20044;-82
2022/01/27 12:42:04;;;;;;;29.38;3.42;;;8.70;99.90;;;;;;4914999;29;20484;-84
2022/01/27 12:44:36;;;;;;;20.45;3.47;;;8.70;99.90;;;;;;4930975;29;20058;-87
2022/01/27 12:47:12;;;;;;;22.30;4.10;;;8.70;99.90;;;;;;4931000;29;20057;-86
2022/01/27 12:49:44;;;;;;;24.80;3.53;;;9.50;99.90;;;;;;4937642;23;20070;31
2022/01/27 12:52:16;;;;;;;30.13;3.85;;;8.70;99.90;;;;;;4931659;29;20099;-83
2022/01/27 12:54:43;;;;;;;23.73;3.90;;;9.50;99.90;;;;;;4952107;29;20047;-84
2022/01/27 12:57:09;;;;;;;30.20;3.97;;;9.20;99.90;;;;;;4952463;29;20047;-86
2022/01/27 12:59:42;;;;;;;23.75;4.05;;;8.80;99.90;;;;;;4952472;28;20079;-83
2022/01/27 13:02:10;;;;;;;29.55;4.10;;;9.20;99.90;;;;;;4935466;29;20069;-83
2022/01/27 13:04:37;;;;;;;27.17;3.95;;;8.80;99.90;;;;;;4951903;29;20079;-82
2022/01/27 13:07:04;;;;;;;24.15;3.67;;;9.40;99.90;;;;;;4934797;29;20380;-83
2022/01/27 13:09:32;;;;;;;25.98;4.25;;;8.80;99.90;;;;;;4952033;28;20406;-86
2022/01/27 13:12:16;;;;;;;23.23;3.55;;;9.70;99.90;;;;;;4952683;28;20062;-82
2022/01/27 13:15:14;;;;;;;30.80;4.05;;;8.80;99.90;;;;;;4935687;29;20130;-85
2022/01/27 13:20:45;;;;;;;27.58;3.88;;;8.80;99.90;;;;;;4953473;28;20055;-81
2022/01/27 13:26:00;;;;;;;19.73;3.40;;;8.80;99.90;;;;;;4971198;28;20190;-85
2022/01/27 13:28:28;;;;;;;26.60;3.88;;;8.80;99.90;;;;;;4970619;28;20057;-81
2022/01/27 13:30:58;;;;;;;26.25;3.70;;;8.70;99.90;;;;;;4963075;28;20047;-79
2022/01/27 13:33:26;;;;;;;25.38;3.38;;;8.70;99.90;;;;;;4949560;28;20067;-85
2022/01/27 13:35:54;;;;;;;27.05;3.28;;;8.70;99.90;;;;;;4968222;28;20050;-84
2022/01/27 13:38:27;;;;;;;24.67;3.95;;;8.70;99.90;;;;;;4934435;29;20166;-82
2022/01/27 13:41:24;;;;;;;26.15;3.65;;;9.30;99.90;;;;;;4934613;28;20133;-81
2022/01/27 13:44:01;;;;;;;25.00;3.60;;;9.40;99.90;;;;;;4951597;28;20051;-83
2022/01/27 13:46:33;;;;;;;21.90;3.00;;;8.70;99.90;;;;;;4952444;28;20163;-83
2022/01/27 13:49:24;;;;;;;20.67;3.03;;;8.80;99.90;;;;;;4955574;29;20047;-87
2022/01/27 13:51:59;;;;;;;29.98;4.93;;;8.70;99.90;;;;;;4953903;28;20055;-82
2022/01/27 13:54:30;;;;;;;33.58;3.47;;;8.80;99.90;;;;;;4938505;29;20061;-85